createdAt,value
2018-09-04T00:00:35.896Z,100484.53
2018-09-04T00:03:03.959Z,100483.94
2018-09-04T00:05:31.996Z,100481.94
2018-09-04T00:08:00.054Z,100482.73
2018-09-04T00:10:28.124Z,100481.14
2018-09-04T00:12:56.190Z,100482.53
2018-09-04T00:15:24.336Z,100485.13
2018-09-04T00:17:52.567Z,100488.13
2018-09-04T00:20:20.639Z,100492.13
2018-09-04T00:22:48.737Z,100496.16
2018-09-04T00:25:16.792Z,100494.35
2018-09-04T00:27:44.881Z,100495.38
2018-09-04T00:30:12.945Z,100491.78
2018-09-04T00:32:41.022Z,100490.98
2018-09-04T00:35:09.071Z,100496.41
2018-09-04T00:37:37.152Z,100496.20
2018-09-04T00:40:05.989Z,100494.23
2018-09-04T00:42:34.300Z,100493.05
2018-09-04T00:45:02.443Z,100491.64
2018-09-04T00:47:30.563Z,100486.50
2018-09-04T00:49:58.663Z,100482.33
2018-09-04T00:52:26.753Z,100492.94
2018-09-04T00:54:54.832Z,100491.77
2018-09-04T00:57:22.923Z,100486.39
2018-09-04T00:59:50.999Z,100492.00
2018-09-04T01:02:19.083Z,100492.62
2018-09-04T01:04:48.081Z,100492.67
2018-09-04T01:07:16.555Z,100497.48
2018-09-04T01:09:44.631Z,100501.89
2018-09-04T01:12:12.680Z,100502.13
2018-09-04T01:14:40.752Z,100503.14
2018-09-04T01:17:08.835Z,100506.76
2018-09-04T01:19:36.895Z,100503.38
2018-09-04T01:22:05.168Z,100506.36
2018-09-04T01:24:33.247Z,100503.78
2018-09-04T01:27:01.315Z,100503.41
2018-09-04T01:29:29.445Z,100508.41
2018-09-04T01:31:57.521Z,100511.42
2018-09-04T01:34:25.619Z,100511.64
2018-09-04T01:36:53.785Z,100508.27
2018-09-04T01:39:21.865Z,100506.28
2018-09-04T01:41:49.928Z,100515.66
2018-09-04T01:44:17.980Z,100503.72
2018-09-04T01:46:46.051Z,100507.31
2018-09-04T01:49:14.148Z,100507.53
2018-09-04T01:51:42.191Z,100507.92
2018-09-04T01:54:10.270Z,100509.94
2018-09-04T01:56:38.340Z,100510.15
2018-09-04T01:59:06.408Z,100511.94
2018-09-04T02:01:35.041Z,100508.55
2018-09-04T02:04:03.101Z,100502.80
2018-09-04T02:06:31.180Z,100495.22
2018-09-04T02:08:59.241Z,100496.20
2018-09-04T02:11:27.329Z,100495.23
2018-09-04T02:13:55.430Z,100490.03
2018-09-04T02:16:23.523Z,100495.02
2018-09-04T02:18:51.631Z,100494.05
2018-09-04T02:21:19.746Z,100492.05
2018-09-04T02:23:48.086Z,100490.03
2018-09-04T02:26:16.153Z,100485.67
2018-09-04T02:28:44.276Z,100482.67
2018-09-04T02:31:12.311Z,100479.88
2018-09-04T02:33:40.432Z,100482.67
2018-09-04T02:36:08.498Z,100484.06
2018-09-04T02:38:36.590Z,100472.89
2018-09-04T02:41:05.038Z,100474.09
2018-09-04T02:43:33.246Z,100477.89
2018-09-04T02:46:01.389Z,100477.30
2018-09-04T02:48:29.427Z,100476.50
2018-09-04T02:50:57.480Z,100480.69
2018-09-04T02:53:25.519Z,100478.31
2018-09-04T02:55:53.629Z,100480.30
2018-09-04T02:58:21.720Z,100477.13
2018-09-04T03:00:49.791Z,100483.70
2018-09-04T03:03:17.834Z,100481.50
2018-09-04T03:05:45.883Z,100481.32
2018-09-04T03:08:13.931Z,100486.31
2018-09-04T03:10:42.044Z,100474.34
2018-09-04T03:13:10.102Z,100476.16
2018-09-04T03:15:38.163Z,100473.38
2018-09-04T03:18:06.216Z,100475.19
2018-09-04T03:20:34.267Z,100474.56
2018-09-04T03:23:02.354Z,100474.77
2018-09-04T03:25:30.393Z,100480.35
2018-09-04T03:27:58.497Z,100471.17
2018-09-04T03:30:26.555Z,100475.36
2018-09-04T03:32:54.587Z,100472.74
2018-09-04T03:35:22.664Z,100475.15
2018-09-04T03:37:50.734Z,100470.75
2018-09-04T03:40:18.784Z,100469.35
2018-09-04T03:42:46.880Z,100475.73
2018-09-04T03:45:14.939Z,100472.56
2018-09-04T03:47:43.013Z,100469.77
2018-09-04T03:50:11.056Z,100469.95
2018-09-04T03:52:39.110Z,100468.38
2018-09-04T03:55:07.213Z,100464.96
2018-09-04T03:57:35.273Z,100471.34
2018-09-04T04:00:03.345Z,100475.53
2018-09-04T04:02:31.387Z,100472.74
2018-09-04T04:04:59.460Z,100479.72
2018-09-04T04:07:27.531Z,100480.14
2018-09-04T04:09:55.588Z,100476.34
2018-09-04T04:12:23.619Z,100481.33
2018-09-04T04:14:51.694Z,100483.32
2018-09-04T04:17:19.740Z,100485.13
2018-09-04T04:19:47.839Z,100483.32
2018-09-04T04:22:15.912Z,100487.72
2018-09-04T04:24:43.969Z,100480.73
2018-09-04T04:27:12.048Z,100486.91
2018-09-04T04:29:40.125Z,100485.94
2018-09-04T04:32:08.192Z,100483.73
2018-09-04T04:34:36.309Z,100485.73
2018-09-04T04:37:04.406Z,100486.73
2018-09-04T04:39:32.469Z,100487.13
2018-09-04T04:42:00.535Z,100488.34
2018-09-04T04:44:28.584Z,100491.52
2018-09-04T04:46:56.643Z,100492.92
2018-09-04T04:49:24.689Z,100491.52
2018-09-04T04:51:52.766Z,100494.73
2018-09-04T04:54:20.827Z,100500.31
2018-09-04T04:56:48.917Z,100496.52
2018-09-04T04:59:17.065Z,100496.72
2018-09-04T05:01:45.112Z,100503.66
2018-09-04T05:04:13.164Z,100504.88
2018-09-04T05:06:41.235Z,100504.47
2018-09-04T05:09:10.263Z,100510.47
2018-09-04T05:11:39.762Z,100506.07
2018-09-04T05:14:08.153Z,100506.23
2018-09-04T05:16:36.219Z,100508.39
2018-09-04T05:19:04.313Z,100509.78
2018-09-04T05:21:32.464Z,100505.37
2018-09-04T05:24:00.531Z,100514.72
2018-09-04T05:26:28.643Z,100507.33
2018-09-04T05:28:56.744Z,100505.70
2018-09-04T05:31:24.876Z,100507.86
2018-09-04T05:33:52.956Z,100511.27
2018-09-04T05:36:21.072Z,100508.50
2018-09-04T05:38:49.172Z,100517.48
2018-09-04T05:41:17.324Z,100519.09
2018-09-04T05:43:52.398Z,100517.27
2018-09-04T05:46:27.022Z,100521.02
2018-09-04T05:48:56.127Z,100514.59
2018-09-04T05:51:24.201Z,100515.97
2018-09-04T05:53:52.323Z,100510.95
2018-09-04T05:56:20.464Z,100517.48
2018-09-04T05:58:48.592Z,100513.02
2018-09-04T06:01:17.441Z,100511.14
2018-09-04T06:03:45.512Z,100513.47
2018-09-04T06:06:13.575Z,100511.05
2018-09-04T06:08:41.652Z,100505.26
2018-09-04T06:11:09.721Z,100502.63
2018-09-04T06:13:37.797Z,100506.52
2018-09-04T06:16:05.954Z,100510.80
2018-09-04T06:18:34.039Z,100508.80
2018-09-04T06:21:02.102Z,100507.98
2018-09-04T06:23:30.183Z,100505.85
2018-09-04T06:25:58.264Z,100496.70
2018-09-04T06:28:26.373Z,100492.03
2018-09-04T06:30:54.452Z,100490.36
2018-09-04T06:33:22.551Z,100490.52
2018-09-04T06:35:50.618Z,100496.69
2018-09-04T06:38:18.814Z,100497.66
2018-09-04T06:40:46.894Z,100495.05
2018-09-04T06:43:14.966Z,100501.69
2018-09-04T06:45:43.075Z,100507.09
2018-09-04T06:48:11.179Z,100507.94
2018-09-04T06:50:39.250Z,100509.10
2018-09-04T06:53:07.354Z,100513.34
2018-09-04T06:55:35.473Z,100516.19
2018-09-04T06:58:03.554Z,100527.95
2018-09-04T07:00:31.607Z,100518.96
2018-09-04T07:02:59.710Z,100524.98
2018-09-04T07:05:27.768Z,100528.31
2018-09-04T07:07:55.835Z,100521.58
2018-09-04T07:10:23.900Z,100527.35
2018-09-04T07:12:52.006Z,100523.86
2018-09-04T07:15:20.062Z,100527.63
2018-09-04T07:17:48.141Z,100531.75
2018-09-04T07:20:16.476Z,100530.43
2018-09-04T07:22:44.580Z,100541.94
2018-09-04T07:25:12.641Z,100533.82
2018-09-04T07:27:40.713Z,100528.20
2018-09-04T07:30:08.813Z,100535.56
2018-09-04T07:32:36.908Z,100535.31
2018-09-04T07:35:04.989Z,100524.16
2018-09-04T07:37:34.190Z,100526.97
2018-09-04T07:40:02.898Z,100534.95
2018-09-04T07:42:31.688Z,100528.78
2018-09-04T07:45:02.101Z,100531.31
2018-09-04T07:47:30.228Z,100518.73
2018-09-04T07:49:58.357Z,100538.38
2018-09-04T07:52:28.396Z,100533.91
2018-09-04T07:54:59.414Z,100538.33
2018-09-04T07:57:28.775Z,100535.07
2018-09-04T07:59:58.416Z,100533.04
2018-09-04T08:02:27.362Z,100528.00
2018-09-04T08:04:56.426Z,100528.42
2018-09-04T08:07:25.124Z,100535.91
2018-09-04T08:09:53.962Z,100536.77
2018-09-04T08:12:22.892Z,100535.20
2018-09-04T08:14:53.860Z,100541.05
2018-09-04T08:17:22.771Z,100540.64
2018-09-04T08:19:51.494Z,100539.09
2018-09-04T08:22:20.300Z,100533.28
2018-09-04T08:24:51.400Z,100540.27
2018-09-04T08:27:21.836Z,100537.59
2018-09-04T08:29:50.609Z,100538.59
2018-09-04T08:32:19.926Z,100533.73
2018-09-04T08:34:49.323Z,100536.47
2018-09-04T08:37:18.213Z,100540.24
2018-09-04T08:39:46.986Z,100535.17
2018-09-04T08:42:17.533Z,100534.06
2018-09-04T08:44:46.129Z,100535.00
2018-09-04T08:47:14.794Z,100541.58
2018-09-04T08:49:42.831Z,100543.50
2018-09-04T08:52:11.719Z,100535.81
2018-09-04T08:54:42.131Z,100536.28
2018-09-04T08:57:11.104Z,100535.06
2018-09-04T08:59:40.181Z,100530.63
2018-09-04T09:02:08.942Z,100526.08
2018-09-04T09:04:37.450Z,100524.00
2018-09-04T09:07:06.615Z,100523.33
2018-09-04T09:09:35.680Z,100522.66
2018-09-04T09:12:05.506Z,100511.53
2018-09-04T09:14:34.848Z,100515.72
2018-09-04T09:17:04.175Z,100504.98
2018-09-04T09:19:33.129Z,100509.59
2018-09-04T09:22:01.690Z,100513.83
2018-09-04T09:24:30.502Z,100508.97
2018-09-04T09:26:59.176Z,100510.74
2018-09-04T09:29:30.364Z,100511.06
2018-09-04T09:31:58.711Z,100514.84
2018-09-04T09:34:27.998Z,100524.05
2018-09-04T09:36:57.844Z,100517.75
2018-09-04T09:39:26.932Z,100521.00
2018-09-04T09:41:56.042Z,100524.41
2018-09-04T09:44:24.624Z,100526.48
2018-09-04T09:46:58.358Z,100526.20
2018-09-04T09:49:27.100Z,100521.34
2018-09-04T09:51:56.143Z,100522.49
2018-09-04T09:54:26.006Z,100521.35
2018-09-04T09:56:54.654Z,100520.41
2018-09-04T09:59:22.834Z,100516.60
2018-09-04T10:01:59.614Z,100511.43
2018-09-04T10:04:28.339Z,100513.11
2018-09-04T10:06:57.705Z,100510.77
2018-09-04T10:09:26.795Z,100502.88
2018-09-04T10:11:55.695Z,100502.13
2018-09-04T10:14:28.059Z,100496.66
2018-09-04T10:16:56.602Z,100492.10
2018-09-04T10:19:27.142Z,100489.84
2018-09-04T10:21:57.519Z,100490.76
2018-09-04T10:27:08.061Z,100488.75
2018-09-04T10:29:37.548Z,100492.07
2018-09-04T10:32:08.569Z,100492.69
2018-09-04T10:34:36.914Z,100485.81
2018-09-04T10:37:06.055Z,100484.09
2018-09-04T10:39:39.710Z,100488.95
2018-09-04T10:42:08.402Z,100484.50
2018-09-04T10:44:37.079Z,100482.59
2018-09-04T10:47:05.800Z,100477.98
2018-09-04T10:49:34.530Z,100479.33
2018-09-04T10:52:02.636Z,100471.73
2018-09-04T10:54:31.595Z,100474.88
2018-09-04T10:56:59.681Z,100469.30
2018-09-04T10:59:27.799Z,100474.06
2018-09-04T11:01:55.880Z,100474.04
2018-09-04T11:04:23.989Z,100472.20
2018-09-04T11:06:52.175Z,100480.34
2018-09-04T11:09:20.408Z,100481.25
2018-09-04T11:11:48.477Z,100477.56
2018-09-04T11:14:16.761Z,100469.69
2018-09-04T11:16:44.869Z,100474.68
2018-09-04T11:19:12.957Z,100470.36
2018-09-04T11:21:41.148Z,100470.12
2018-09-04T11:24:09.267Z,100470.84
2018-09-04T11:26:37.454Z,100470.05
2018-09-04T11:29:07.494Z,100471.77
2018-09-04T11:31:35.772Z,100475.48
2018-09-04T11:34:03.920Z,100468.32
2018-09-04T11:36:32.093Z,100470.98
2018-09-04T11:39:00.198Z,100468.84
2018-09-04T11:41:28.320Z,100458.68
2018-09-04T11:43:56.455Z,100458.31
2018-09-04T11:46:24.621Z,100460.81
2018-09-04T11:48:52.768Z,100465.59
2018-09-04T11:51:21.025Z,100454.66
2018-09-04T11:53:49.223Z,100463.13
2018-09-04T11:56:20.541Z,100457.53
2018-09-04T11:58:53.511Z,100457.20
2018-09-04T12:01:25.967Z,100459.80
2018-09-04T12:03:59.877Z,100454.73
2018-09-04T12:06:30.087Z,100458.03
2018-09-04T12:08:59.912Z,100461.30
2018-09-04T12:11:28.103Z,100460.92
2018-09-04T12:13:56.257Z,100462.69
2018-09-04T12:16:24.649Z,100458.00
2018-09-04T12:18:53.339Z,100456.80
2018-09-04T12:21:23.332Z,100455.23
2018-09-04T12:23:53.398Z,100453.09
2018-09-04T12:26:22.541Z,100444.14
2018-09-04T12:28:52.666Z,100446.03
2018-09-04T12:31:20.781Z,100439.28
2018-09-04T12:33:49.316Z,100454.45
2018-09-04T12:36:19.631Z,100451.20
2018-09-04T12:38:47.741Z,100450.77
2018-09-04T12:41:19.875Z,100446.21
2018-09-04T12:43:51.418Z,100444.48
2018-09-04T12:46:19.975Z,100447.98
2018-09-04T12:48:50.664Z,100443.71
2018-09-04T12:51:19.734Z,100441.34
2018-09-04T12:53:48.622Z,100442.30
2018-09-04T12:56:16.979Z,100434.91
2018-09-04T12:58:45.365Z,100442.80
2018-09-04T13:01:13.448Z,100441.63
2018-09-04T13:06:34.488Z,100443.58
2018-09-04T13:09:04.801Z,100439.33
2018-09-04T13:11:38.120Z,100427.36
2018-09-04T13:14:07.529Z,100433.20
2018-09-04T13:16:41.234Z,100437.92
2018-09-04T13:19:13.305Z,100431.97
2018-09-04T13:21:41.420Z,100428.64
2018-09-04T13:24:09.507Z,100431.81
2018-09-04T13:26:37.616Z,100432.57
2018-09-04T13:29:06.006Z,100429.92
2018-09-04T13:31:34.082Z,100432.12
2018-09-04T13:34:02.267Z,100436.39
2018-09-04T13:36:30.383Z,100438.58
2018-09-04T13:38:58.478Z,100433.22
2018-09-04T13:41:30.716Z,100423.45
2018-09-04T13:43:58.792Z,100427.41
2018-09-04T13:46:26.879Z,100430.24
2018-09-04T13:48:55.068Z,100423.12
2018-09-04T13:54:42.444Z,100419.34
2018-09-04T13:57:11.896Z,100420.95
2018-09-04T13:59:41.935Z,100423.94
2018-09-04T14:02:10.673Z,100420.45
2018-09-04T14:04:41.909Z,100421.09
2018-09-04T14:07:10.009Z,100408.19
2018-09-04T14:09:39.550Z,100418.58
2018-09-04T14:12:13.699Z,100417.64
2018-09-04T14:14:42.407Z,100417.94
2018-09-04T14:17:16.377Z,100412.27
2018-09-04T14:19:46.209Z,100428.19
2018-09-04T14:22:14.728Z,100424.41
2018-09-04T14:24:42.855Z,100416.55
2018-09-04T14:27:10.963Z,100416.22
2018-09-04T14:30:15.402Z,100417.16
2018-09-04T14:32:13.825Z,100417.63
2018-09-04T14:34:42.000Z,100423.45
2018-09-04T14:37:10.204Z,100418.09
2018-09-04T14:39:38.261Z,100417.15
2018-09-04T14:42:06.426Z,100412.43
2018-09-04T14:44:34.548Z,100418.09
2018-09-04T14:47:02.769Z,100423.45
2018-09-04T14:49:30.935Z,100417.16
2018-09-04T14:51:59.039Z,100421.57
2018-09-04T14:54:27.120Z,100414.65
2018-09-04T14:56:55.300Z,100417.15
2018-09-04T14:59:23.464Z,100413.54
2018-09-04T15:01:51.625Z,100426.78
2018-09-04T15:04:19.755Z,100428.97
2018-09-04T15:06:47.864Z,100426.47
2018-09-04T15:09:15.951Z,100431.50
2018-09-04T15:11:44.089Z,100425.99
2018-09-04T15:14:12.183Z,100429.09
2018-09-04T15:16:40.349Z,100440.30
2018-09-04T15:19:08.411Z,100433.70
2018-09-04T15:21:36.516Z,100440.30
2018-09-04T15:24:04.607Z,100438.59
2018-09-04T15:26:32.727Z,100440.78
2018-09-04T15:29:00.827Z,100435.28
2018-09-04T15:31:28.957Z,100433.70
2018-09-04T15:33:57.057Z,100434.80
2018-09-04T15:36:25.241Z,100433.83
2018-09-04T15:38:53.345Z,100430.67
2018-09-04T15:41:21.425Z,100430.19
2018-09-04T15:43:49.516Z,100429.87
2018-09-04T15:46:17.587Z,100425.00
2018-09-04T15:48:48.223Z,100429.41
2018-09-04T15:51:16.334Z,100437.92
2018-09-04T15:53:44.492Z,100438.69
2018-09-04T15:56:12.551Z,100442.17
2018-09-04T15:58:40.633Z,100447.52
2018-09-04T16:01:08.706Z,100438.05
2018-09-04T16:03:36.804Z,100444.06
2018-09-04T16:06:04.914Z,100445.29
2018-09-04T16:08:33.138Z,100440.25
2018-09-04T16:11:01.248Z,100444.02
2018-09-04T16:13:29.376Z,100443.69
2018-09-04T16:15:57.442Z,100438.81
2018-09-04T16:18:25.546Z,100444.48
2018-09-04T16:20:53.829Z,100440.55
2018-09-04T16:23:22.031Z,100444.33
2018-09-04T16:25:50.213Z,100421.31
2018-09-04T16:28:18.295Z,100441.17
2018-09-04T16:30:46.434Z,100438.96
2018-09-04T16:33:14.519Z,100441.45
2018-09-04T16:35:42.651Z,100444.77
2018-09-04T16:38:10.769Z,100446.50
2018-09-04T16:40:38.828Z,100446.04
2018-09-04T16:43:06.959Z,100442.87
2018-09-04T16:45:35.092Z,100452.16
2018-09-04T16:48:03.204Z,100449.78
2018-09-04T16:50:31.297Z,100452.09
2018-09-04T16:52:59.368Z,100443.43
2018-09-04T16:55:27.500Z,100456.77
2018-09-04T16:57:55.991Z,100456.90
2018-09-04T17:00:24.088Z,100461.76
2018-09-04T17:02:52.395Z,100465.38
2018-09-04T17:05:20.732Z,100465.65
2018-09-04T17:07:49.012Z,100467.67
2018-09-04T17:10:17.168Z,100470.32
2018-09-04T17:12:45.461Z,100473.11
2018-09-04T17:15:13.547Z,100469.62
2018-09-04T17:17:41.652Z,100470.72
2018-09-04T17:20:09.758Z,100471.16
2018-09-04T17:22:37.832Z,100477.38
2018-09-04T17:25:06.335Z,100480.34
2018-09-04T17:27:34.467Z,100478.12
2018-09-04T17:30:03.407Z,100482.73
2018-09-04T17:32:31.564Z,100477.69
2018-09-04T17:34:59.714Z,100479.20
2018-09-04T17:37:27.886Z,100476.47
2018-09-04T17:39:56.820Z,100476.72
2018-09-04T17:42:25.115Z,100470.06
2018-09-04T17:44:53.293Z,100477.31
2018-09-04T17:47:24.207Z,100480.85
2018-09-04T17:49:53.316Z,100484.88
2018-09-04T17:52:21.404Z,100480.58
2018-09-04T17:54:49.490Z,100481.90
2018-09-04T17:57:17.588Z,100486.22
2018-09-04T17:59:45.748Z,100490.17
2018-09-04T18:02:13.855Z,100491.33
2018-09-04T18:04:41.955Z,100490.28
2018-09-04T18:07:10.249Z,100497.23
2018-09-04T18:09:38.761Z,100494.47
2018-09-04T18:12:06.996Z,100496.09
2018-09-04T18:14:35.024Z,100501.80
2018-09-04T18:17:03.107Z,100507.64
2018-09-04T18:19:31.243Z,100505.05
2018-09-04T18:21:59.428Z,100506.67
2018-09-04T18:24:27.677Z,100512.36
2018-09-04T18:26:56.002Z,100514.55
2018-09-04T18:29:24.087Z,100526.05
2018-09-04T18:31:52.259Z,100522.63
2018-09-04T18:34:20.601Z,100528.12
2018-09-04T18:36:48.792Z,100529.22
2018-09-04T18:39:16.943Z,100530.38
2018-09-04T18:41:45.015Z,100536.72
2018-09-04T18:44:13.212Z,100539.48
2018-09-04T18:46:41.342Z,100542.66
2018-09-04T18:49:09.530Z,100548.66
2018-09-04T18:51:37.916Z,100552.83
2018-09-04T18:54:06.256Z,100557.87
2018-09-04T18:56:43.940Z,100560.09
2018-09-04T18:59:20.144Z,100560.06
2018-09-04T19:01:49.321Z,100567.11
2018-09-04T19:04:17.592Z,100568.78
2018-09-04T19:06:47.023Z,100568.75
2018-09-04T19:09:15.727Z,100563.91
2018-09-04T19:11:47.939Z,100574.71
2018-09-04T19:14:16.904Z,100572.81
2018-09-04T19:16:45.251Z,100570.97
2018-09-04T19:19:13.544Z,100576.30
2018-09-04T19:21:41.700Z,100573.66
2018-09-04T19:24:09.899Z,100573.80
2018-09-04T19:26:37.975Z,100575.37
2018-09-04T19:29:06.383Z,100579.66
2018-09-04T19:31:34.503Z,100578.12
2018-09-04T19:34:02.992Z,100581.80
2018-09-04T19:36:31.445Z,100580.91
2018-09-04T19:39:00.304Z,100580.37
2018-09-04T19:41:28.379Z,100583.85
2018-09-04T19:43:56.451Z,100584.36
2018-09-04T19:46:24.545Z,100580.63
2018-09-04T19:48:52.644Z,100585.52
2018-09-04T19:51:20.818Z,100586.81
2018-09-04T19:53:49.128Z,100592.50
2018-09-04T19:56:17.188Z,100587.19
2018-09-04T19:58:45.269Z,100591.47
2018-09-04T20:01:13.785Z,100588.72
2018-09-04T20:03:41.966Z,100589.02
2018-09-04T20:06:10.664Z,100596.55
2018-09-04T20:08:38.787Z,100595.65
2018-09-04T20:11:07.371Z,100600.36
2018-09-04T20:13:35.514Z,100601.02
2018-09-04T20:16:04.533Z,100597.47
2018-09-04T20:18:32.685Z,100599.17
2018-09-04T20:21:00.857Z,100597.91
2018-09-04T20:23:28.941Z,100598.58
2018-09-04T20:25:57.022Z,100594.91
2018-09-04T20:28:25.106Z,100597.84
2018-09-04T20:30:59.552Z,100592.13
2018-09-04T20:33:27.685Z,100594.67
2018-09-04T20:35:55.791Z,100603.58
2018-09-04T20:38:23.871Z,100603.86
2018-09-04T20:40:51.987Z,100607.15
2018-09-04T20:43:20.088Z,100605.83
2018-09-04T20:45:48.246Z,100607.71
2018-09-04T20:48:16.343Z,100607.99
2018-09-04T20:50:44.431Z,100610.88
2018-09-04T20:53:14.386Z,100612.16
2018-09-04T20:55:49.228Z,100605.66
2018-09-04T20:58:28.644Z,100607.53
2018-09-04T21:01:08.180Z,100607.60
2018-09-04T21:03:47.671Z,100610.30
2018-09-04T21:06:27.175Z,100609.80
2018-09-04T21:09:02.423Z,100615.08
2018-09-04T21:11:30.704Z,100615.50
2018-09-04T21:13:59.385Z,100613.10
2018-09-04T21:16:27.474Z,100616.13
2018-09-04T21:18:55.594Z,100619.17
2018-09-04T21:21:23.684Z,100603.34
2018-09-04T21:23:51.811Z,100619.06
2018-09-04T21:26:20.006Z,100628.32
2018-09-04T21:28:48.413Z,100629.15
2018-09-04T21:31:17.553Z,100630.37
2018-09-04T21:33:45.620Z,100627.40
2018-09-04T21:36:13.723Z,100630.05
2018-09-04T21:38:41.840Z,100634.50
2018-09-04T21:41:09.935Z,100631.73
2018-09-04T21:43:38.006Z,100633.75
2018-09-04T21:46:06.539Z,100634.80
2018-09-04T21:48:34.631Z,100638.22
2018-09-04T21:51:02.700Z,100638.87
2018-09-04T21:53:30.823Z,100631.91
2018-09-04T21:55:58.911Z,100642.30
2018-09-04T21:58:26.982Z,100642.36
2018-09-04T22:00:55.562Z,100642.77
2018-09-04T22:03:25.013Z,100642.42
2018-09-04T22:05:53.438Z,100643.07
2018-09-04T22:08:22.027Z,100642.88
2018-09-04T22:10:50.124Z,100650.31
2018-09-04T22:13:18.285Z,100654.34
2018-09-04T22:15:46.327Z,100655.13
2018-09-04T22:18:14.430Z,100653.33
2018-09-04T22:20:42.534Z,100655.74
2018-09-04T22:23:10.637Z,100655.16
2018-09-04T22:25:38.728Z,100654.16
2018-09-04T22:28:06.821Z,100653.39
2018-09-04T22:30:34.905Z,100645.82
2018-09-04T22:33:02.965Z,100651.64
2018-09-04T22:35:31.030Z,100660.25
2018-09-04T22:38:00.279Z,100660.48
2018-09-04T22:40:28.355Z,100661.11
2018-09-04T22:42:56.400Z,100661.50
2018-09-04T22:45:24.527Z,100657.73
2018-09-04T22:47:52.636Z,100660.75
2018-09-04T22:50:26.245Z,100659.95
2018-09-04T22:52:54.336Z,100657.78
2018-09-04T22:55:22.438Z,100661.77
2018-09-04T22:57:50.500Z,100656.59
2018-09-04T23:00:18.572Z,100659.98
2018-09-04T23:02:46.620Z,100661.00
2018-09-04T23:05:14.701Z,100653.59
2018-09-04T23:07:42.785Z,100660.02
2018-09-04T23:10:10.939Z,100658.80
2018-09-04T23:12:39.010Z,100656.42
2018-09-04T23:15:07.305Z,100656.20
2018-09-04T23:17:35.367Z,100659.20
2018-09-04T23:20:03.455Z,100654.81
2018-09-04T23:22:31.558Z,100654.83
2018-09-04T23:24:59.727Z,100656.44
2018-09-04T23:27:27.828Z,100654.62
2018-09-04T23:29:55.912Z,100657.63
2018-09-04T23:32:24.075Z,100655.84
2018-09-04T23:34:52.215Z,100651.05
2018-09-04T23:37:20.332Z,100652.62
2018-09-04T23:39:49.040Z,100655.62
2018-09-04T23:42:17.090Z,100652.44
2018-09-04T23:44:45.124Z,100647.23
2018-09-04T23:47:13.206Z,100641.86
2018-09-04T23:49:41.274Z,100647.64
2018-09-04T23:52:09.336Z,100648.27
2018-09-04T23:54:37.419Z,100639.28
2018-09-04T23:57:05.740Z,100651.25
2018-09-04T23:59:33.806Z,100643.84
